sensor_id;sensor_type;location;lat;lon;timestamp;P1;durP1;ratioP1;P2;durP2;ratioP2
21038;SDS011;10678;51.002;4.786;2023-07-31T00:00:25;18.45;;;3.90;;
21038;SDS011;10678;51.002;4.786;2023-07-31T00:02:51;12.68;;;4.30;;
21038;SDS011;10678;51.002;4.786;2023-07-31T00:05:17;17.40;;;4.05;;
21038;SDS011;10678;51.002;4.786;2023-07-31T00:07:43;22.55;;;4.95;;
21038;SDS011;10678;51.002;4.786;2023-07-31T00:10:09;14.95;;;4.53;;
21038;SDS011;10678;51.002;4.786;2023-07-31T00:12:34;17.35;;;4.60;;
21038;SDS011;10678;51.002;4.786;2023-07-31T00:15:00;11.55;;;3.50;;
21038;SDS011;10678;51.002;4.786;2023-07-31T00:17:27;11.60;;;3.92;;
21038;SDS011;10678;51.002;4.786;2023-07-31T00:19:53;14.25;;;3.85;;
21038;SDS011;10678;51.002;4.786;2023-07-31T00:22:18;15.82;;;4.00;;
21038;SDS011;10678;51.002;4.786;2023-07-31T00:24:44;14.73;;;4.30;;
21038;SDS011;10678;51.002;4.786;2023-07-31T00:27:09;15.05;;;4.65;;
21038;SDS011;10678;51.002;4.786;2023-07-31T00:29:35;21.50;;;4.40;;
21038;SDS011;10678;51.002;4.786;2023-07-31T00:32:01;13.40;;;4.45;;
21038;SDS011;10678;51.002;4.786;2023-07-31T00:34:26;18.75;;;4.25;;
21038;SDS011;10678;51.002;4.786;2023-07-31T00:36:52;19.85;;;4.78;;
21038;SDS011;10678;51.002;4.786;2023-07-31T00:39:17;13.65;;;3.85;;
21038;SDS011;10678;51.002;4.786;2023-07-31T00:41:43;14.43;;;4.25;;
21038;SDS011;10678;51.002;4.786;2023-07-31T00:44:08;16.17;;;4.70;;
21038;SDS011;10678;51.002;4.786;2023-07-31T00:46:34;23.73;;;5.07;;
21038;SDS011;10678;51.002;4.786;2023-07-31T00:48:59;24.35;;;4.53;;
21038;SDS011;10678;51.002;4.786;2023-07-31T00:51:25;17.77;;;4.63;;
21038;SDS011;10678;51.002;4.786;2023-07-31T00:53:51;16.02;;;3.72;;
21038;SDS011;10678;51.002;4.786;2023-07-31T00:56:19;19.98;;;4.28;;
21038;SDS011;10678;51.002;4.786;2023-07-31T00:58:44;15.68;;;3.97;;
21038;SDS011;10678;51.002;4.786;2023-07-31T01:01:10;16.70;;;4.70;;
21038;SDS011;10678;51.002;4.786;2023-07-31T01:03:36;23.73;;;4.25;;
21038;SDS011;10678;51.002;4.786;2023-07-31T01:08:39;17.63;;;4.53;;
21038;SDS011;10678;51.002;4.786;2023-07-31T01:11:27;20.90;;;4.47;;
21038;SDS011;10678;51.002;4.786;2023-07-31T01:13:55;14.85;;;4.53;;
21038;SDS011;10678;51.002;4.786;2023-07-31T01:16:21;16.15;;;4.47;;
21038;SDS011;10678;51.002;4.786;2023-07-31T01:18:47;17.75;;;4.63;;
21038;SDS011;10678;51.002;4.786;2023-07-31T01:24:31;12.10;;;4.18;;
21038;SDS011;10678;51.002;4.786;2023-07-31T01:26:46;16.88;;;4.78;;
21038;SDS011;10678;51.002;4.786;2023-07-31T01:31:44;16.95;;;4.63;;
21038;SDS011;10678;51.002;4.786;2023-07-31T01:34:13;15.32;;;4.10;;
21038;SDS011;10678;51.002;4.786;2023-07-31T01:36:42;21.90;;;5.18;;
21038;SDS011;10678;51.002;4.786;2023-07-31T01:39:08;19.02;;;4.95;;
21038;SDS011;10678;51.002;4.786;2023-07-31T01:41:34;16.67;;;4.47;;
21038;SDS011;10678;51.002;4.786;2023-07-31T01:44:00;19.30;;;4.82;;
21038;SDS011;10678;51.002;4.786;2023-07-31T01:46:25;17.33;;;4.63;;
21038;SDS011;10678;51.002;4.786;2023-07-31T01:48:51;13.90;;;4.40;;
21038;SDS011;10678;51.002;4.786;2023-07-31T01:51:16;14.77;;;4.63;;
21038;SDS011;10678;51.002;4.786;2023-07-31T01:53:42;12.38;;;4.18;;
21038;SDS011;10678;51.002;4.786;2023-07-31T01:56:08;15.10;;;4.43;;
21038;SDS011;10678;51.002;4.786;2023-07-31T01:58:33;16.52;;;4.05;;
21038;SDS011;10678;51.002;4.786;2023-07-31T02:00:59;17.20;;;5.15;;
21038;SDS011;10678;51.002;4.786;2023-07-31T02:03:24;14.57;;;4.10;;
21038;SDS011;10678;51.002;4.786;2023-07-31T02:05:50;18.75;;;4.43;;
21038;SDS011;10678;51.002;4.786;2023-07-31T02:08:16;17.17;;;5.65;;
21038;SDS011;10678;51.002;4.786;2023-07-31T02:10:41;17.25;;;4.60;;
21038;SDS011;10678;51.002;4.786;2023-07-31T02:13:07;11.23;;;4.43;;
21038;SDS011;10678;51.002;4.786;2023-07-31T02:15:33;15.25;;;5.25;;
21038;SDS011;10678;51.002;4.786;2023-07-31T02:17:59;23.55;;;5.18;;
21038;SDS011;10678;51.002;4.786;2023-07-31T02:20:24;13.43;;;4.60;;
21038;SDS011;10678;51.002;4.786;2023-07-31T02:22:50;15.52;;;4.63;;
21038;SDS011;10678;51.002;4.786;2023-07-31T02:25:16;15.57;;;4.63;;
21038;SDS011;10678;51.002;4.786;2023-07-31T02:27:42;16.85;;;4.22;;
21038;SDS011;10678;51.002;4.786;2023-07-31T02:30:07;14.52;;;4.20;;
21038;SDS011;10678;51.002;4.786;2023-07-31T02:32:33;16.17;;;4.03;;
21038;SDS011;10678;51.002;4.786;2023-07-31T02:34:59;18.20;;;4.05;;
21038;SDS011;10678;51.002;4.786;2023-07-31T02:37:25;13.20;;;5.00;;
21038;SDS011;10678;51.002;4.786;2023-07-31T02:39:50;16.80;;;4.65;;
21038;SDS011;10678;51.002;4.786;2023-07-31T02:42:16;15.60;;;4.40;;
21038;SDS011;10678;51.002;4.786;2023-07-31T02:44:42;15.77;;;5.10;;
21038;SDS011;10678;51.002;4.786;2023-07-31T02:47:07;18.70;;;4.82;;
21038;SDS011;10678;51.002;4.786;2023-07-31T02:49:33;16.08;;;4.68;;
21038;SDS011;10678;51.002;4.786;2023-07-31T02:51:58;14.82;;;4.57;;
21038;SDS011;10678;51.002;4.786;2023-07-31T02:54:24;20.77;;;4.68;;
21038;SDS011;10678;51.002;4.786;2023-07-31T02:56:50;15.20;;;5.45;;
21038;SDS011;10678;51.002;4.786;2023-07-31T02:59:16;23.77;;;5.43;;
21038;SDS011;10678;51.002;4.786;2023-07-31T03:01:44;17.67;;;4.78;;
21038;SDS011;10678;51.002;4.786;2023-07-31T03:04:09;16.95;;;4.80;;
21038;SDS011;10678;51.002;4.786;2023-07-31T03:06:35;17.98;;;5.05;;
21038;SDS011;10678;51.002;4.786;2023-07-31T03:09:00;17.35;;;4.25;;
21038;SDS011;10678;51.002;4.786;2023-07-31T03:11:26;13.20;;;5.00;;
21038;SDS011;10678;51.002;4.786;2023-07-31T03:13:52;12.40;;;4.68;;
21038;SDS011;10678;51.002;4.786;2023-07-31T03:16:17;16.50;;;4.45;;
21038;SDS011;10678;51.002;4.786;2023-07-31T03:18:43;16.88;;;4.30;;
21038;SDS011;10678;51.002;4.786;2023-07-31T03:21:08;14.00;;;4.90;;
21038;SDS011;10678;51.002;4.786;2023-07-31T03:23:34;16.48;;;4.60;;
21038;SDS011;10678;51.002;4.786;2023-07-31T03:26:01;14.85;;;4.88;;
21038;SDS011;10678;51.002;4.786;2023-07-31T03:28:28;13.70;;;4.55;;
21038;SDS011;10678;51.002;4.786;2023-07-31T03:30:54;14.07;;;4.07;;
21038;SDS011;10678;51.002;4.786;2023-07-31T03:33:20;12.57;;;4.60;;
21038;SDS011;10678;51.002;4.786;2023-07-31T03:35:46;16.00;;;4.32;;
21038;SDS011;10678;51.002;4.786;2023-07-31T03:38:12;12.48;;;4.07;;
21038;SDS011;10678;51.002;4.786;2023-07-31T03:40:38;11.77;;;4.07;;
21038;SDS011;10678;51.002;4.786;2023-07-31T03:43:04;15.15;;;4.35;;
21038;SDS011;10678;51.002;4.786;2023-07-31T03:45:30;15.75;;;4.25;;
21038;SDS011;10678;51.002;4.786;2023-07-31T03:47:56;15.98;;;4.15;;
21038;SDS011;10678;51.002;4.786;2023-07-31T03:50:21;15.68;;;4.35;;
21038;SDS011;10678;51.002;4.786;2023-07-31T03:52:47;12.63;;;4.57;;
21038;SDS011;10678;51.002;4.786;2023-07-31T03:55:12;12.93;;;4.03;;
21038;SDS011;10678;51.002;4.786;2023-07-31T03:57:38;12.70;;;4.53;;
21038;SDS011;10678;51.002;4.786;2023-07-31T04:00:04;11.40;;;3.95;;
21038;SDS011;10678;51.002;4.786;2023-07-31T04:02:30;12.45;;;4.35;;
21038;SDS011;10678;51.002;4.786;2023-07-31T04:04:55;13.52;;;3.47;;
21038;SDS011;10678;51.002;4.786;2023-07-31T04:07:21;12.98;;;4.63;;
21038;SDS011;10678;51.002;4.786;2023-07-31T04:09:47;14.65;;;4.65;;
21038;SDS011;10678;51.002;4.786;2023-07-31T04:12:12;11.23;;;3.95;;
21038;SDS011;10678;51.002;4.786;2023-07-31T04:14:38;17.77;;;4.30;;
21038;SDS011;10678;51.002;4.786;2023-07-31T04:17:03;12.40;;;3.83;;
21038;SDS011;10678;51.002;4.786;2023-07-31T04:19:29;13.55;;;4.18;;
21038;SDS011;10678;51.002;4.786;2023-07-31T04:21:55;10.50;;;4.07;;
21038;SDS011;10678;51.002;4.786;2023-07-31T04:24:20;7.75;;;4.03;;
21038;SDS011;10678;51.002;4.786;2023-07-31T04:26:52;12.10;;;4.25;;
21038;SDS011;10678;51.002;4.786;2023-07-31T04:29:19;10.07;;;3.92;;
21038;SDS011;10678;51.002;4.786;2023-07-31T04:31:44;13.50;;;4.57;;
21038;SDS011;10678;51.002;4.786;2023-07-31T04:34:10;10.18;;;3.80;;
21038;SDS011;10678;51.002;4.786;2023-07-31T04:36:39;12.43;;;4.63;;
21038;SDS011;10678;51.002;4.786;2023-07-31T04:39:04;11.45;;;4.07;;
21038;SDS011;10678;51.002;4.786;2023-07-31T04:41:30;9.98;;;3.97;;
21038;SDS011;10678;51.002;4.786;2023-07-31T04:43:56;8.90;;;3.67;;
21038;SDS011;10678;51.002;4.786;2023-07-31T04:46:21;15.23;;;5.05;;
21038;SDS011;10678;51.002;4.786;2023-07-31T04:48:47;8.55;;;4.03;;
21038;SDS011;10678;51.002;4.786;2023-07-31T04:51:13;16.95;;;4.55;;
21038;SDS011;10678;51.002;4.786;2023-07-31T04:53:38;13.85;;;4.13;;
21038;SDS011;10678;51.002;4.786;2023-07-31T04:56:04;12.93;;;4.20;;
21038;SDS011;10678;51.002;4.786;2023-07-31T04:58:29;8.65;;;3.70;;
21038;SDS011;10678;51.002;4.786;2023-07-31T05:00:55;11.00;;;4.25;;
21038;SDS011;10678;51.002;4.786;2023-07-31T05:03:21;11.63;;;4.13;;
21038;SDS011;10678;51.002;4.786;2023-07-31T05:05:47;11.15;;;3.88;;
21038;SDS011;10678;51.002;4.786;2023-07-31T05:08:12;14.80;;;3.80;;
21038;SDS011;10678;51.002;4.786;2023-07-31T05:10:38;12.32;;;3.47;;
21038;SDS011;10678;51.002;4.786;2023-07-31T05:13:04;10.20;;;3.20;;
21038;SDS011;10678;51.002;4.786;2023-07-31T05:15:30;10.10;;;4.05;;
21038;SDS011;10678;51.002;4.786;2023-07-31T05:17:55;13.32;;;3.97;;
21038;SDS011;10678;51.002;4.786;2023-07-31T05:20:21;17.83;;;3.78;;
21038;SDS011;10678;51.002;4.786;2023-07-31T05:22:47;14.45;;;3.90;;
21038;SDS011;10678;51.002;4.786;2023-07-31T05:25:12;9.30;;;3.35;;
21038;SDS011;10678;51.002;4.786;2023-07-31T05:27:38;8.73;;;3.47;;
21038;SDS011;10678;51.002;4.786;2023-07-31T05:30:04;11.50;;;4.13;;
21038;SDS011;10678;51.002;4.786;2023-07-31T05:32:30;10.15;;;3.65;;
21038;SDS011;10678;51.002;4.786;2023-07-31T05:34:56;7.53;;;3.30;;
21038;SDS011;10678;51.002;4.786;2023-07-31T05:37:22;9.85;;;3.80;;
21038;SDS011;10678;51.002;4.786;2023-07-31T05:39:47;8.80;;;3.95;;
21038;SDS011;10678;51.002;4.786;2023-07-31T05:42:13;10.43;;;3.85;;
21038;SDS011;10678;51.002;4.786;2023-07-31T05:44:39;10.10;;;3.88;;
21038;SDS011;10678;51.002;4.786;2023-07-31T05:47:04;9.32;;;3.55;;
21038;SDS011;10678;51.002;4.786;2023-07-31T05:49:30;10.02;;;3.90;;
21038;SDS011;10678;51.002;4.786;2023-07-31T05:51:56;10.45;;;3.88;;
21038;SDS011;10678;51.002;4.786;2023-07-31T05:54:21;15.15;;;3.58;;
21038;SDS011;10678;51.002;4.786;2023-07-31T05:56:47;10.27;;;3.58;;
21038;SDS011;10678;51.002;4.786;2023-07-31T05:59:13;8.38;;;2.85;;
21038;SDS011;10678;51.002;4.786;2023-07-31T06:01:39;5.65;;;2.92;;
21038;SDS011;10678;51.002;4.786;2023-07-31T06:04:04;10.27;;;2.70;;
21038;SDS011;10678;51.002;4.786;2023-07-31T06:06:30;11.48;;;3.00;;
21038;SDS011;10678;51.002;4.786;2023-07-31T06:08:56;9.65;;;3.33;;
21038;SDS011;10678;51.002;4.786;2023-07-31T06:11:22;9.48;;;3.03;;
21038;SDS011;10678;51.002;4.786;2023-07-31T06:13:48;9.15;;;2.97;;
21038;SDS011;10678;51.002;4.786;2023-07-31T06:16:15;8.32;;;3.03;;
21038;SDS011;10678;51.002;4.786;2023-07-31T06:18:41;6.95;;;2.85;;
21038;SDS011;10678;51.002;4.786;2023-07-31T06:21:07;9.63;;;3.75;;
21038;SDS011;10678;51.002;4.786;2023-07-31T06:23:34;12.05;;;3.03;;
21038;SDS011;10678;51.002;4.786;2023-07-31T06:25:59;8.02;;;3.22;;
21038;SDS011;10678;51.002;4.786;2023-07-31T06:28:28;12.00;;;2.92;;
21038;SDS011;10678;51.002;4.786;2023-07-31T06:30:55;12.98;;;3.20;;
21038;SDS011;10678;51.002;4.786;2023-07-31T06:33:21;7.78;;;3.15;;
21038;SDS011;10678;51.002;4.786;2023-07-31T06:35:46;10.63;;;3.60;;
21038;SDS011;10678;51.002;4.786;2023-07-31T06:38:12;11.15;;;3.53;;
21038;SDS011;10678;51.002;4.786;2023-07-31T06:40:38;8.55;;;3.50;;
21038;SDS011;10678;51.002;4.786;2023-07-31T06:43:03;10.27;;;3.15;;
21038;SDS011;10678;51.002;4.786;2023-07-31T06:45:35;10.75;;;3.03;;
21038;SDS011;10678;51.002;4.786;2023-07-31T06:48:02;9.07;;;3.38;;
21038;SDS011;10678;51.002;4.786;2023-07-31T06:50:29;10.00;;;3.20;;
21038;SDS011;10678;51.002;4.786;2023-07-31T06:52:56;8.57;;;3.60;;
21038;SDS011;10678;51.002;4.786;2023-07-31T06:55:22;12.18;;;3.08;;
21038;SDS011;10678;51.002;4.786;2023-07-31T06:57:49;8.90;;;3.35;;
21038;SDS011;10678;51.002;4.786;2023-07-31T07:00:16;9.73;;;3.30;;
21038;SDS011;10678;51.002;4.786;2023-07-31T07:02:42;9.45;;;4.28;;
21038;SDS011;10678;51.002;4.786;2023-07-31T07:05:08;8.18;;;3.50;;
21038;SDS011;10678;51.002;4.786;2023-07-31T07:07:35;11.65;;;2.90;;
21038;SDS011;10678;51.002;4.786;2023-07-31T07:10:01;12.73;;;3.85;;
21038;SDS011;10678;51.002;4.786;2023-07-31T07:12:29;10.20;;;3.88;;
21038;SDS011;10678;51.002;4.786;2023-07-31T07:14:55;11.90;;;3.15;;
21038;SDS011;10678;51.002;4.786;2023-07-31T07:17:22;15.73;;;3.97;;
21038;SDS011;10678;51.002;4.786;2023-07-31T07:19:48;11.10;;;3.40;;
21038;SDS011;10678;51.002;4.786;2023-07-31T07:22:14;10.55;;;3.67;;
21038;SDS011;10678;51.002;4.786;2023-07-31T07:24:39;9.90;;;3.25;;
21038;SDS011;10678;51.002;4.786;2023-07-31T07:27:06;11.57;;;2.85;;
21038;SDS011;10678;51.002;4.786;2023-07-31T07:29:33;6.30;;;2.90;;
21038;SDS011;10678;51.002;4.786;2023-07-31T07:32:00;11.35;;;4.13;;
21038;SDS011;10678;51.002;4.786;2023-07-31T07:34:26;13.05;;;4.05;;
21038;SDS011;10678;51.002;4.786;2023-07-31T07:36:53;8.77;;;3.00;;
21038;SDS011;10678;51.002;4.786;2023-07-31T07:39:19;9.85;;;3.67;;
21038;SDS011;10678;51.002;4.786;2023-07-31T07:41:45;9.50;;;2.92;;
21038;SDS011;10678;51.002;4.786;2023-07-31T07:44:11;8.45;;;3.13;;
21038;SDS011;10678;51.002;4.786;2023-07-31T07:46:37;13.23;;;3.53;;
21038;SDS011;10678;51.002;4.786;2023-07-31T07:49:03;11.27;;;3.20;;
21038;SDS011;10678;51.002;4.786;2023-07-31T07:51:29;13.38;;;3.60;;
21038;SDS011;10678;51.002;4.786;2023-07-31T07:53:56;8.77;;;3.22;;
21038;SDS011;10678;51.002;4.786;2023-07-31T07:56:23;8.57;;;3.10;;
21038;SDS011;10678;51.002;4.786;2023-07-31T07:58:49;7.95;;;2.97;;
21038;SDS011;10678;51.002;4.786;2023-07-31T08:01:15;8.85;;;3.55;;
21038;SDS011;10678;51.002;4.786;2023-07-31T08:03:41;8.27;;;3.00;;
21038;SDS011;10678;51.002;4.786;2023-07-31T08:06:07;12.65;;;3.92;;
21038;SDS011;10678;51.002;4.786;2023-07-31T08:08:34;10.75;;;3.83;;
21038;SDS011;10678;51.002;4.786;2023-07-31T08:11:00;15.52;;;3.28;;
21038;SDS011;10678;51.002;4.786;2023-07-31T08:13:26;7.68;;;3.35;;
21038;SDS011;10678;51.002;4.786;2023-07-31T08:15:51;11.07;;;3.75;;
21038;SDS011;10678;51.002;4.786;2023-07-31T08:18:17;7.78;;;3.05;;
21038;SDS011;10678;51.002;4.786;2023-07-31T08:20:43;9.15;;;3.10;;
21038;SDS011;10678;51.002;4.786;2023-07-31T08:23:09;7.50;;;2.90;;
21038;SDS011;10678;51.002;4.786;2023-07-31T08:25:35;8.15;;;2.95;;
21038;SDS011;10678;51.002;4.786;2023-07-31T08:28:02;10.10;;;3.30;;
21038;SDS011;10678;51.002;4.786;2023-07-31T08:30:28;8.05;;;2.92;;
21038;SDS011;10678;51.002;4.786;2023-07-31T08:32:54;12.75;;;2.75;;
21038;SDS011;10678;51.002;4.786;2023-07-31T08:35:19;9.70;;;2.97;;
21038;SDS011;10678;51.002;4.786;2023-07-31T08:37:45;15.63;;;3.17;;
21038;SDS011;10678;51.002;4.786;2023-07-31T08:40:11;9.23;;;2.53;;
21038;SDS011;10678;51.002;4.786;2023-07-31T08:42:43;8.27;;;2.90;;
21038;SDS011;10678;51.002;4.786;2023-07-31T08:45:11;10.45;;;2.90;;
21038;SDS011;10678;51.002;4.786;2023-07-31T08:47:40;6.38;;;2.47;;
21038;SDS011;10678;51.002;4.786;2023-07-31T08:50:07;6.75;;;2.30;;
21038;SDS011;10678;51.002;4.786;2023-07-31T08:52:33;9.05;;;2.33;;
21038;SDS011;10678;51.002;4.786;2023-07-31T08:54:59;9.70;;;2.60;;
21038;SDS011;10678;51.002;4.786;2023-07-31T08:57:24;7.43;;;2.63;;
21038;SDS011;10678;51.002;4.786;2023-07-31T08:59:50;9.05;;;2.30;;
21038;SDS011;10678;51.002;4.786;2023-07-31T09:02:17;5.72;;;2.30;;
21038;SDS011;10678;51.002;4.786;2023-07-31T09:04:44;10.73;;;2.70;;
21038;SDS011;10678;51.002;4.786;2023-07-31T09:07:10;7.20;;;2.35;;
21038;SDS011;10678;51.002;4.786;2023-07-31T09:09:38;8.65;;;2.65;;
21038;SDS011;10678;51.002;4.786;2023-07-31T09:12:04;7.05;;;2.75;;
21038;SDS011;10678;51.002;4.786;2023-07-31T09:14:31;11.80;;;2.42;;
21038;SDS011;10678;51.002;4.786;2023-07-31T09:16:58;6.60;;;2.40;;
21038;SDS011;10678;51.002;4.786;2023-07-31T09:19:28;8.23;;;2.92;;
21038;SDS011;10678;51.002;4.786;2023-07-31T09:21:58;5.90;;;2.13;;
21038;SDS011;10678;51.002;4.786;2023-07-31T09:24:25;7.85;;;2.38;;
21038;SDS011;10678;51.002;4.786;2023-07-31T09:26:53;10.73;;;2.75;;
21038;SDS011;10678;51.002;4.786;2023-07-31T09:29:20;6.38;;;2.17;;
21038;SDS011;10678;51.002;4.786;2023-07-31T09:31:46;7.28;;;2.30;;
21038;SDS011;10678;51.002;4.786;2023-07-31T09:34:12;7.10;;;2.20;;
21038;SDS011;10678;51.002;4.786;2023-07-31T09:39:12;8.93;;;2.25;;
21038;SDS011;10678;51.002;4.786;2023-07-31T09:41:43;8.70;;;2.95;;
21038;SDS011;10678;51.002;4.786;2023-07-31T09:44:10;9.35;;;3.00;;
21038;SDS011;10678;51.002;4.786;2023-07-31T09:46:36;10.90;;;2.75;;
21038;SDS011;10678;51.002;4.786;2023-07-31T09:49:03;8.02;;;3.10;;
21038;SDS011;10678;51.002;4.786;2023-07-31T09:51:30;10.63;;;3.33;;
21038;SDS011;10678;51.002;4.786;2023-07-31T09:53:56;9.35;;;3.10;;
21038;SDS011;10678;51.002;4.786;2023-07-31T09:56:21;8.82;;;3.42;;
21038;SDS011;10678;51.002;4.786;2023-07-31T09:58:48;9.57;;;3.20;;
21038;SDS011;10678;51.002;4.786;2023-07-31T10:01:15;12.63;;;3.17;;
21038;SDS011;10678;51.002;4.786;2023-07-31T10:03:41;10.75;;;2.92;;
21038;SDS011;10678;51.002;4.786;2023-07-31T10:06:09;9.23;;;3.33;;
21038;SDS011;10678;51.002;4.786;2023-07-31T10:08:35;8.52;;;3.05;;
21038;SDS011;10678;51.002;4.786;2023-07-31T10:11:02;7.13;;;3.13;;
21038;SDS011;10678;51.002;4.786;2023-07-31T10:13:30;9.65;;;3.20;;
21038;SDS011;10678;51.002;4.786;2023-07-31T10:15:58;8.00;;;2.28;;
21038;SDS011;10678;51.002;4.786;2023-07-31T10:18:26;6.07;;;2.30;;
21038;SDS011;10678;51.002;4.786;2023-07-31T10:20:52;5.78;;;2.95;;
21038;SDS011;10678;51.002;4.786;2023-07-31T10:23:19;4.93;;;2.20;;
21038;SDS011;10678;51.002;4.786;2023-07-31T10:25:45;7.40;;;2.33;;
21038;SDS011;10678;51.002;4.786;2023-07-31T10:28:12;7.45;;;2.20;;
21038;SDS011;10678;51.002;4.786;2023-07-31T10:30:38;8.57;;;2.50;;
21038;SDS011;10678;51.002;4.786;2023-07-31T10:33:04;7.35;;;2.33;;
21038;SDS011;10678;51.002;4.786;2023-07-31T10:35:31;7.82;;;2.60;;
21038;SDS011;10678;51.002;4.786;2023-07-31T10:38:08;6.60;;;2.58;;
21038;SDS011;10678;51.002;4.786;2023-07-31T10:40:38;7.70;;;2.55;;
21038;SDS011;10678;51.002;4.786;2023-07-31T10:43:04;9.13;;;3.08;;
21038;SDS011;10678;51.002;4.786;2023-07-31T10:48:01;11.50;;;3.30;;
21038;SDS011;10678;51.002;4.786;2023-07-31T10:50:29;10.38;;;2.97;;
21038;SDS011;10678;51.002;4.786;2023-07-31T10:52:58;8.82;;;2.90;;
21038;SDS011;10678;51.002;4.786;2023-07-31T10:57:57;10.77;;;2.95;;
21038;SDS011;10678;51.002;4.786;2023-07-31T11:00:39;12.82;;;3.28;;
21038;SDS011;10678;51.002;4.786;2023-07-31T11:05:48;12.50;;;4.18;;
21038;SDS011;10678;51.002;4.786;2023-07-31T11:08:20;8.57;;;2.75;;
21038;SDS011;10678;51.002;4.786;2023-07-31T11:11:11;8.02;;;2.72;;
21038;SDS011;10678;51.002;4.786;2023-07-31T11:16:17;10.82;;;3.35;;
21038;SDS011;10678;51.002;4.786;2023-07-31T11:18:45;7.93;;;3.15;;
21038;SDS011;10678;51.002;4.786;2023-07-31T11:21:15;10.40;;;3.63;;
21038;SDS011;10678;51.002;4.786;2023-07-31T11:23:51;11.43;;;3.70;;
21038;SDS011;10678;51.002;4.786;2023-07-31T11:26:20;8.00;;;3.33;;
21038;SDS011;10678;51.002;4.786;2023-07-31T11:28:48;9.68;;;3.58;;
21038;SDS011;10678;51.002;4.786;2023-07-31T11:31:14;12.82;;;3.72;;
21038;SDS011;10678;51.002;4.786;2023-07-31T11:33:40;11.05;;;3.58;;
21038;SDS011;10678;51.002;4.786;2023-07-31T11:36:06;12.73;;;3.63;;
21038;SDS011;10678;51.002;4.786;2023-07-31T11:38:39;12.63;;;3.78;;
21038;SDS011;10678;51.002;4.786;2023-07-31T11:41:05;11.57;;;3.53;;
21038;SDS011;10678;51.002;4.786;2023-07-31T11:43:31;11.38;;;3.85;;
21038;SDS011;10678;51.002;4.786;2023-07-31T11:45:58;10.82;;;3.60;;
21038;SDS011;10678;51.002;4.786;2023-07-31T11:48:29;8.60;;;3.72;;
21038;SDS011;10678;51.002;4.786;2023-07-31T11:50:59;10.05;;;4.03;;
21038;SDS011;10678;51.002;4.786;2023-07-31T11:53:47;13.40;;;3.75;;
21038;SDS011;10678;51.002;4.786;2023-07-31T11:56:22;14.82;;;3.85;;
21038;SDS011;10678;51.002;4.786;2023-07-31T11:58:50;13.07;;;3.80;;
21038;SDS011;10678;51.002;4.786;2023-07-31T12:01:22;9.20;;;3.67;;
21038;SDS011;10678;51.002;4.786;2023-07-31T12:03:49;13.27;;;3.63;;
21038;SDS011;10678;51.002;4.786;2023-07-31T12:06:15;9.60;;;3.60;;
21038;SDS011;10678;51.002;4.786;2023-07-31T12:08:41;13.85;;;4.57;;
21038;SDS011;10678;51.002;4.786;2023-07-31T12:11:11;9.18;;;3.60;;
21038;SDS011;10678;51.002;4.786;2023-07-31T12:13:39;10.10;;;3.80;;
21038;SDS011;10678;51.002;4.786;2023-07-31T12:16:05;10.80;;;3.80;;
21038;SDS011;10678;51.002;4.786;2023-07-31T12:18:35;11.52;;;3.90;;
21038;SDS011;10678;51.002;4.786;2023-07-31T12:21:02;10.38;;;3.50;;
21038;SDS011;10678;51.002;4.786;2023-07-31T12:23:31;9.65;;;3.53;;
21038;SDS011;10678;51.002;4.786;2023-07-31T12:26:01;11.07;;;3.60;;
21038;SDS011;10678;51.002;4.786;2023-07-31T12:28:28;10.30;;;3.92;;
21038;SDS011;10678;51.002;4.786;2023-07-31T12:30:58;10.30;;;4.25;;
21038;SDS011;10678;51.002;4.786;2023-07-31T12:33:32;10.38;;;3.63;;
21038;SDS011;10678;51.002;4.786;2023-07-31T12:36:03;9.35;;;3.72;;
21038;SDS011;10678;51.002;4.786;2023-07-31T12:38:31;8.70;;;3.85;;
21038;SDS011;10678;51.002;4.786;2023-07-31T12:40:57;12.57;;;3.70;;
21038;SDS011;10678;51.002;4.786;2023-07-31T12:43:23;14.55;;;4.40;;
21038;SDS011;10678;51.002;4.786;2023-07-31T12:45:48;8.98;;;3.80;;
21038;SDS011;10678;51.002;4.786;2023-07-31T12:48:14;10.45;;;3.67;;
21038;SDS011;10678;51.002;4.786;2023-07-31T12:50:40;9.63;;;3.92;;
21038;SDS011;10678;51.002;4.786;2023-07-31T12:53:05;12.88;;;3.53;;
21038;SDS011;10678;51.002;4.786;2023-07-31T12:55:31;10.38;;;3.90;;
21038;SDS011;10678;51.002;4.786;2023-07-31T12:57:59;9.27;;;4.00;;
21038;SDS011;10678;51.002;4.786;2023-07-31T13:00:25;11.70;;;4.32;;
21038;SDS011;10678;51.002;4.786;2023-07-31T13:02:51;9.65;;;4.00;;
21038;SDS011;10678;51.002;4.786;2023-07-31T13:05:17;12.15;;;3.65;;
21038;SDS011;10678;51.002;4.786;2023-07-31T13:07:44;10.30;;;3.65;;
21038;SDS011;10678;51.002;4.786;2023-07-31T13:10:10;13.63;;;4.35;;
21038;SDS011;10678;51.002;4.786;2023-07-31T13:12:36;17.73;;;4.47;;
21038;SDS011;10678;51.002;4.786;2023-07-31T13:15:02;11.68;;;4.28;;
21038;SDS011;10678;51.002;4.786;2023-07-31T13:17:29;12.68;;;3.88;;
21038;SDS011;10678;51.002;4.786;2023-07-31T13:19:54;11.75;;;3.83;;
21038;SDS011;10678;51.002;4.786;2023-07-31T13:22:20;8.68;;;3.70;;
21038;SDS011;10678;51.002;4.786;2023-07-31T13:24:46;8.90;;;3.60;;
21038;SDS011;10678;51.002;4.786;2023-07-31T13:27:11;13.52;;;3.40;;
21038;SDS011;10678;51.002;4.786;2023-07-31T13:29:37;14.02;;;3.95;;
21038;SDS011;10678;51.002;4.786;2023-07-31T13:32:03;9.65;;;3.63;;
21038;SDS011;10678;51.002;4.786;2023-07-31T13:34:29;10.60;;;3.58;;
21038;SDS011;10678;51.002;4.786;2023-07-31T13:36:54;12.00;;;3.33;;
21038;SDS011;10678;51.002;4.786;2023-07-31T13:39:21;10.90;;;3.40;;
21038;SDS011;10678;51.002;4.786;2023-07-31T13:41:46;11.27;;;3.97;;
21038;SDS011;10678;51.002;4.786;2023-07-31T13:44:12;8.00;;;3.05;;
21038;SDS011;10678;51.002;4.786;2023-07-31T13:46:39;13.55;;;3.53;;
21038;SDS011;10678;51.002;4.786;2023-07-31T13:49:04;7.70;;;3.50;;
21038;SDS011;10678;51.002;4.786;2023-07-31T13:51:30;12.07;;;3.45;;
21038;SDS011;10678;51.002;4.786;2023-07-31T13:53:56;8.63;;;3.40;;
21038;SDS011;10678;51.002;4.786;2023-07-31T13:56:21;7.72;;;2.90;;
21038;SDS011;10678;51.002;4.786;2023-07-31T13:58:47;11.35;;;3.40;;
21038;SDS011;10678;51.002;4.786;2023-07-31T14:01:13;8.43;;;3.15;;
21038;SDS011;10678;51.002;4.786;2023-07-31T14:03:38;9.75;;;3.03;;
21038;SDS011;10678;51.002;4.786;2023-07-31T14:06:04;7.85;;;2.53;;
21038;SDS011;10678;51.002;4.786;2023-07-31T14:08:29;9.15;;;2.70;;
21038;SDS011;10678;51.002;4.786;2023-07-31T14:10:56;5.57;;;2.60;;
21038;SDS011;10678;51.002;4.786;2023-07-31T14:13:21;6.97;;;2.17;;
21038;SDS011;10678;51.002;4.786;2023-07-31T14:15:47;7.75;;;2.55;;
21038;SDS011;10678;51.002;4.786;2023-07-31T14:18:13;8.77;;;2.78;;
21038;SDS011;10678;51.002;4.786;2023-07-31T14:20:38;4.95;;;2.15;;
21038;SDS011;10678;51.002;4.786;2023-07-31T14:23:04;10.40;;;2.65;;
21038;SDS011;10678;51.002;4.786;2023-07-31T14:25:30;7.22;;;2.30;;
21038;SDS011;10678;51.002;4.786;2023-07-31T14:27:55;7.93;;;2.80;;
21038;SDS011;10678;51.002;4.786;2023-07-31T14:30:21;10.05;;;2.47;;
21038;SDS011;10678;51.002;4.786;2023-07-31T14:32:46;8.25;;;2.45;;
21038;SDS011;10678;51.002;4.786;2023-07-31T14:35:12;5.68;;;2.15;;
21038;SDS011;10678;51.002;4.786;2023-07-31T14:37:41;6.43;;;2.10;;
21038;SDS011;10678;51.002;4.786;2023-07-31T14:40:09;9.23;;;2.10;;
21038;SDS011;10678;51.002;4.786;2023-07-31T14:42:36;7.10;;;2.38;;
21038;SDS011;10678;51.002;4.786;2023-07-31T14:45:03;6.22;;;2.45;;
21038;SDS011;10678;51.002;4.786;2023-07-31T14:47:29;8.32;;;2.47;;
21038;SDS011;10678;51.002;4.786;2023-07-31T14:49:58;6.50;;;2.13;;
21038;SDS011;10678;51.002;4.786;2023-07-31T14:52:25;9.07;;;2.88;;
21038;SDS011;10678;51.002;4.786;2023-07-31T14:54:51;7.28;;;2.22;;